sensor_id;sensor_type;location;lat;lon;timestamp;P1;durP1;ratioP1;P2;durP2;ratioP2
78838;SDS011;68405;47.190;27.558;2023-05-18T00:00:21;6.10;;;4.10;;
78838;SDS011;68405;47.190;27.558;2023-05-18T00:03:14;5.50;;;3.50;;
78838;SDS011;68405;47.190;27.558;2023-05-18T00:05:45;5.70;;;3.10;;
78838;SDS011;68405;47.190;27.558;2023-05-18T00:08:17;6.60;;;3.70;;
78838;SDS011;68405;47.190;27.558;2023-05-18T00:10:48;5.30;;;3.20;;
78838;SDS011;68405;47.190;27.558;2023-05-18T00:13:20;4.00;;;3.20;;
78838;SDS011;68405;47.190;27.558;2023-05-18T00:15:52;6.50;;;3.60;;
78838;SDS011;68405;47.190;27.558;2023-05-18T00:18:24;3.50;;;2.60;;
78838;SDS011;68405;47.190;27.558;2023-05-18T00:20:56;5.80;;;3.00;;
78838;SDS011;68405;47.190;27.558;2023-05-18T00:23:28;5.60;;;3.20;;
78838;SDS011;68405;47.190;27.558;2023-05-18T00:26:00;9.40;;;3.00;;
78838;SDS011;68405;47.190;27.558;2023-05-18T00:28:32;6.20;;;3.80;;
78838;SDS011;68405;47.190;27.558;2023-05-18T00:31:04;6.30;;;3.10;;
78838;SDS011;68405;47.190;27.558;2023-05-18T00:33:35;4.30;;;3.10;;
78838;SDS011;68405;47.190;27.558;2023-05-18T00:36:07;4.00;;;3.10;;
78838;SDS011;68405;47.190;27.558;2023-05-18T00:38:39;6.50;;;2.80;;
78838;SDS011;68405;47.190;27.558;2023-05-18T00:41:11;4.70;;;3.10;;
78838;SDS011;68405;47.190;27.558;2023-05-18T00:43:42;5.00;;;2.90;;
78838;SDS011;68405;47.190;27.558;2023-05-18T00:46:14;6.20;;;2.90;;
78838;SDS011;68405;47.190;27.558;2023-05-18T00:48:45;4.40;;;2.80;;
78838;SDS011;68405;47.190;27.558;2023-05-18T00:51:18;4.40;;;2.60;;
78838;SDS011;68405;47.190;27.558;2023-05-18T00:53:51;4.80;;;3.10;;
78838;SDS011;68405;47.190;27.558;2023-05-18T00:56:24;8.80;;;3.30;;
78838;SDS011;68405;47.190;27.558;2023-05-18T00:58:57;3.70;;;2.50;;
78838;SDS011;68405;47.190;27.558;2023-05-18T01:01:31;5.90;;;2.70;;
78838;SDS011;68405;47.190;27.558;2023-05-18T01:04:03;4.80;;;2.60;;
78838;SDS011;68405;47.190;27.558;2023-05-18T01:06:35;4.00;;;2.90;;
78838;SDS011;68405;47.190;27.558;2023-05-18T01:09:09;4.40;;;3.20;;
78838;SDS011;68405;47.190;27.558;2023-05-18T01:11:46;4.20;;;2.80;;
78838;SDS011;68405;47.190;27.558;2023-05-18T01:14:26;5.40;;;2.50;;
78838;SDS011;68405;47.190;27.558;2023-05-18T01:17:11;5.10;;;2.40;;
78838;SDS011;68405;47.190;27.558;2023-05-18T01:25:33;5.30;;;2.50;;
78838;SDS011;68405;47.190;27.558;2023-05-18T01:28:12;3.50;;;2.40;;
78838;SDS011;68405;47.190;27.558;2023-05-18T01:30:46;5.90;;;2.30;;
78838;SDS011;68405;47.190;27.558;2023-05-18T01:33:18;3.10;;;2.10;;
78838;SDS011;68405;47.190;27.558;2023-05-18T01:35:51;3.80;;;2.60;;
78838;SDS011;68405;47.190;27.558;2023-05-18T01:38:23;2.60;;;2.20;;
78838;SDS011;68405;47.190;27.558;2023-05-18T01:40:58;3.90;;;2.30;;
78838;SDS011;68405;47.190;27.558;2023-05-18T01:43:35;7.20;;;2.90;;
78838;SDS011;68405;47.190;27.558;2023-05-18T01:46:12;4.50;;;2.60;;
78838;SDS011;68405;47.190;27.558;2023-05-18T01:48:52;6.80;;;3.00;;
78838;SDS011;68405;47.190;27.558;2023-05-18T01:51:28;5.00;;;2.70;;
78838;SDS011;68405;47.190;27.558;2023-05-18T01:54:06;3.40;;;2.90;;
78838;SDS011;68405;47.190;27.558;2023-05-18T01:56:39;5.40;;;2.50;;
78838;SDS011;68405;47.190;27.558;2023-05-18T01:59:12;5.20;;;3.30;;
78838;SDS011;68405;47.190;27.558;2023-05-18T02:01:45;4.00;;;3.00;;
78838;SDS011;68405;47.190;27.558;2023-05-18T02:04:17;5.80;;;2.80;;
78838;SDS011;68405;47.190;27.558;2023-05-18T02:06:49;8.80;;;3.00;;
78838;SDS011;68405;47.190;27.558;2023-05-18T02:09:21;6.70;;;2.80;;
78838;SDS011;68405;47.190;27.558;2023-05-18T02:11:53;7.60;;;3.10;;
78838;SDS011;68405;47.190;27.558;2023-05-18T02:14:24;6.00;;;2.90;;
78838;SDS011;68405;47.190;27.558;2023-05-18T02:16:56;5.00;;;3.10;;
78838;SDS011;68405;47.190;27.558;2023-05-18T02:19:28;4.70;;;3.20;;
78838;SDS011;68405;47.190;27.558;2023-05-18T02:22:00;5.40;;;2.70;;
78838;SDS011;68405;47.190;27.558;2023-05-18T02:24:33;4.30;;;3.10;;
78838;SDS011;68405;47.190;27.558;2023-05-18T02:27:05;5.70;;;3.10;;
78838;SDS011;68405;47.190;27.558;2023-05-18T02:29:37;4.80;;;2.80;;
78838;SDS011;68405;47.190;27.558;2023-05-18T02:32:08;5.40;;;2.90;;
78838;SDS011;68405;47.190;27.558;2023-05-18T02:34:40;5.90;;;2.70;;
78838;SDS011;68405;47.190;27.558;2023-05-18T02:37:13;5.40;;;2.90;;
78838;SDS011;68405;47.190;27.558;2023-05-18T02:39:45;3.20;;;2.30;;
78838;SDS011;68405;47.190;27.558;2023-05-18T02:42:16;6.80;;;2.60;;
78838;SDS011;68405;47.190;27.558;2023-05-18T02:44:48;3.90;;;3.20;;
78838;SDS011;68405;47.190;27.558;2023-05-18T02:47:20;3.60;;;2.60;;
78838;SDS011;68405;47.190;27.558;2023-05-18T02:49:51;5.00;;;2.60;;
78838;SDS011;68405;47.190;27.558;2023-05-18T02:52:23;6.70;;;2.50;;
78838;SDS011;68405;47.190;27.558;2023-05-18T02:54:54;8.10;;;2.90;;
78838;SDS011;68405;47.190;27.558;2023-05-18T02:57:26;4.20;;;2.50;;
78838;SDS011;68405;47.190;27.558;2023-05-18T03:00:00;7.60;;;2.30;;
78838;SDS011;68405;47.190;27.558;2023-05-18T03:02:38;5.70;;;2.30;;
78838;SDS011;68405;47.190;27.558;2023-05-18T03:05:11;5.30;;;2.80;;
78838;SDS011;68405;47.190;27.558;2023-05-18T03:07:43;7.20;;;2.70;;
78838;SDS011;68405;47.190;27.558;2023-05-18T03:10:18;8.00;;;2.80;;
78838;SDS011;68405;47.190;27.558;2023-05-18T03:12:50;7.60;;;2.80;;
78838;SDS011;68405;47.190;27.558;2023-05-18T03:15:23;3.50;;;2.60;;
78838;SDS011;68405;47.190;27.558;2023-05-18T03:17:54;5.40;;;2.80;;
78838;SDS011;68405;47.190;27.558;2023-05-18T03:20:27;6.20;;;2.60;;
78838;SDS011;68405;47.190;27.558;2023-05-18T03:22:59;7.80;;;2.90;;
78838;SDS011;68405;47.190;27.558;2023-05-18T03:25:30;3.90;;;2.50;;
78838;SDS011;68405;47.190;27.558;2023-05-18T03:28:05;5.10;;;2.40;;
78838;SDS011;68405;47.190;27.558;2023-05-18T03:30:36;5.20;;;2.30;;
78838;SDS011;68405;47.190;27.558;2023-05-18T03:33:08;6.80;;;2.40;;
78838;SDS011;68405;47.190;27.558;2023-05-18T03:35:40;3.80;;;2.40;;
78838;SDS011;68405;47.190;27.558;2023-05-18T03:38:11;5.10;;;2.40;;
78838;SDS011;68405;47.190;27.558;2023-05-18T03:40:43;6.50;;;2.90;;
78838;SDS011;68405;47.190;27.558;2023-05-18T03:43:15;3.70;;;2.60;;
78838;SDS011;68405;47.190;27.558;2023-05-18T03:45:46;4.50;;;2.50;;
78838;SDS011;68405;47.190;27.558;2023-05-18T03:48:19;4.80;;;2.50;;
78838;SDS011;68405;47.190;27.558;2023-05-18T03:50:51;3.90;;;2.60;;
78838;SDS011;68405;47.190;27.558;2023-05-18T03:53:22;7.60;;;2.70;;
78838;SDS011;68405;47.190;27.558;2023-05-18T03:55:54;6.20;;;2.70;;
78838;SDS011;68405;47.190;27.558;2023-05-18T03:58:26;6.40;;;2.60;;
78838;SDS011;68405;47.190;27.558;2023-05-18T04:00:58;6.20;;;3.20;;
78838;SDS011;68405;47.190;27.558;2023-05-18T04:03:30;6.30;;;2.70;;
78838;SDS011;68405;47.190;27.558;2023-05-18T04:06:03;5.70;;;2.80;;
78838;SDS011;68405;47.190;27.558;2023-05-18T04:08:37;4.40;;;2.70;;
78838;SDS011;68405;47.190;27.558;2023-05-18T04:11:10;7.00;;;2.60;;
78838;SDS011;68405;47.190;27.558;2023-05-18T04:13:42;7.50;;;3.20;;
78838;SDS011;68405;47.190;27.558;2023-05-18T04:16:14;6.20;;;2.60;;
78838;SDS011;68405;47.190;27.558;2023-05-18T04:18:46;5.40;;;2.60;;
78838;SDS011;68405;47.190;27.558;2023-05-18T04:21:18;5.40;;;2.50;;
78838;SDS011;68405;47.190;27.558;2023-05-18T04:23:50;5.70;;;2.70;;
78838;SDS011;68405;47.190;27.558;2023-05-18T04:26:23;3.90;;;1.80;;
78838;SDS011;68405;47.190;27.558;2023-05-18T04:28:54;4.10;;;2.20;;
78838;SDS011;68405;47.190;27.558;2023-05-18T04:31:28;3.70;;;1.60;;
78838;SDS011;68405;47.190;27.558;2023-05-18T04:34:01;6.10;;;1.80;;
78838;SDS011;68405;47.190;27.558;2023-05-18T04:36:34;7.70;;;1.90;;
78838;SDS011;68405;47.190;27.558;2023-05-18T04:39:07;4.80;;;1.90;;
78838;SDS011;68405;47.190;27.558;2023-05-18T04:41:39;3.80;;;2.00;;
78838;SDS011;68405;47.190;27.558;2023-05-18T04:44:11;4.50;;;1.70;;
78838;SDS011;68405;47.190;27.558;2023-05-18T04:46:42;6.40;;;2.10;;
78838;SDS011;68405;47.190;27.558;2023-05-18T04:49:14;5.00;;;2.10;;
78838;SDS011;68405;47.190;27.558;2023-05-18T04:51:49;4.40;;;2.10;;
78838;SDS011;68405;47.190;27.558;2023-05-18T04:54:25;3.60;;;1.80;;
78838;SDS011;68405;47.190;27.558;2023-05-18T04:56:59;6.70;;;1.70;;
78838;SDS011;68405;47.190;27.558;2023-05-18T04:59:30;4.40;;;1.70;;
78838;SDS011;68405;47.190;27.558;2023-05-18T05:02:04;6.30;;;2.10;;
78838;SDS011;68405;47.190;27.558;2023-05-18T05:04:36;4.90;;;2.40;;
78838;SDS011;68405;47.190;27.558;2023-05-18T05:07:09;4.70;;;1.70;;
78838;SDS011;68405;47.190;27.558;2023-05-18T05:09:41;4.50;;;1.70;;
78838;SDS011;68405;47.190;27.558;2023-05-18T05:12:13;3.70;;;2.00;;
78838;SDS011;68405;47.190;27.558;2023-05-18T05:14:45;3.70;;;1.60;;
78838;SDS011;68405;47.190;27.558;2023-05-18T05:17:17;6.50;;;1.90;;
78838;SDS011;68405;47.190;27.558;2023-05-18T05:19:49;3.40;;;1.60;;
78838;SDS011;68405;47.190;27.558;2023-05-18T05:22:21;3.90;;;2.10;;
78838;SDS011;68405;47.190;27.558;2023-05-18T05:24:52;3.60;;;1.90;;
78838;SDS011;68405;47.190;27.558;2023-05-18T05:27:24;3.80;;;1.70;;
78838;SDS011;68405;47.190;27.558;2023-05-18T05:29:56;4.20;;;1.80;;
78838;SDS011;68405;47.190;27.558;2023-05-18T05:32:28;6.90;;;1.90;;
78838;SDS011;68405;47.190;27.558;2023-05-18T05:35:00;4.70;;;1.70;;
78838;SDS011;68405;47.190;27.558;2023-05-18T05:37:33;4.10;;;1.80;;
78838;SDS011;68405;47.190;27.558;2023-05-18T05:42:36;4.70;;;1.60;;
78838;SDS011;68405;47.190;27.558;2023-05-18T05:45:09;4.70;;;1.70;;
78838;SDS011;68405;47.190;27.558;2023-05-18T05:47:41;2.70;;;1.70;;
78838;SDS011;68405;47.190;27.558;2023-05-18T05:50:13;5.20;;;2.00;;
78838;SDS011;68405;47.190;27.558;2023-05-18T05:52:45;4.00;;;1.70;;
78838;SDS011;68405;47.190;27.558;2023-05-18T05:55:17;4.50;;;2.40;;
78838;SDS011;68405;47.190;27.558;2023-05-18T05:57:50;3.20;;;1.70;;
78838;SDS011;68405;47.190;27.558;2023-05-18T06:00:22;2.40;;;1.70;;
78838;SDS011;68405;47.190;27.558;2023-05-18T06:02:56;2.00;;;1.50;;
78838;SDS011;68405;47.190;27.558;2023-05-18T06:05:27;2.50;;;1.90;;
78838;SDS011;68405;47.190;27.558;2023-05-18T06:07:59;5.00;;;1.90;;
78838;SDS011;68405;47.190;27.558;2023-05-18T06:10:32;2.30;;;2.10;;
78838;SDS011;68405;47.190;27.558;2023-05-18T06:13:03;2.50;;;2.30;;
78838;SDS011;68405;47.190;27.558;2023-05-18T06:15:35;2.20;;;2.00;;
78838;SDS011;68405;47.190;27.558;2023-05-18T06:18:07;2.80;;;2.00;;
78838;SDS011;68405;47.190;27.558;2023-05-18T06:20:39;2.60;;;1.90;;
78838;SDS011;68405;47.190;27.558;2023-05-18T06:23:10;3.10;;;2.30;;
78838;SDS011;68405;47.190;27.558;2023-05-18T06:25:42;4.20;;;2.30;;
78838;SDS011;68405;47.190;27.558;2023-05-18T06:30:44;3.90;;;2.20;;
78838;SDS011;68405;47.190;27.558;2023-05-18T06:33:16;3.40;;;2.20;;
78838;SDS011;68405;47.190;27.558;2023-05-18T06:35:51;3.00;;;2.20;;
78838;SDS011;68405;47.190;27.558;2023-05-18T06:40:53;2.90;;;2.30;;
78838;SDS011;68405;47.190;27.558;2023-05-18T06:48:26;4.00;;;2.50;;
78838;SDS011;68405;47.190;27.558;2023-05-18T06:50:58;3.40;;;2.40;;
78838;SDS011;68405;47.190;27.558;2023-05-18T06:53:30;2.90;;;2.40;;
78838;SDS011;68405;47.190;27.558;2023-05-18T06:56:02;4.50;;;2.40;;
78838;SDS011;68405;47.190;27.558;2023-05-18T06:58:36;5.60;;;2.70;;
78838;SDS011;68405;47.190;27.558;2023-05-18T07:01:08;3.10;;;2.40;;
78838;SDS011;68405;47.190;27.558;2023-05-18T07:03:41;2.10;;;2.00;;
78838;SDS011;68405;47.190;27.558;2023-05-18T07:06:13;5.80;;;2.20;;
78838;SDS011;68405;47.190;27.558;2023-05-18T07:08:45;2.80;;;2.40;;
78838;SDS011;68405;47.190;27.558;2023-05-18T07:11:17;2.50;;;2.20;;
78838;SDS011;68405;47.190;27.558;2023-05-18T07:13:49;3.00;;;1.80;;
78838;SDS011;68405;47.190;27.558;2023-05-18T07:16:22;3.50;;;2.60;;
78838;SDS011;68405;47.190;27.558;2023-05-18T07:18:55;3.60;;;2.30;;
78838;SDS011;68405;47.190;27.558;2023-05-18T07:21:27;3.10;;;2.20;;
78838;SDS011;68405;47.190;27.558;2023-05-18T07:23:59;3.60;;;2.30;;
78838;SDS011;68405;47.190;27.558;2023-05-18T07:26:31;3.60;;;2.60;;
78838;SDS011;68405;47.190;27.558;2023-05-18T07:29:03;3.40;;;2.00;;
78838;SDS011;68405;47.190;27.558;2023-05-18T07:31:35;5.20;;;2.40;;
78838;SDS011;68405;47.190;27.558;2023-05-18T07:34:08;4.80;;;1.90;;
78838;SDS011;68405;47.190;27.558;2023-05-18T07:36:40;3.60;;;2.10;;
78838;SDS011;68405;47.190;27.558;2023-05-18T07:39:12;3.00;;;2.10;;
78838;SDS011;68405;47.190;27.558;2023-05-18T07:41:46;2.80;;;1.90;;
78838;SDS011;68405;47.190;27.558;2023-05-18T07:46:48;4.00;;;1.90;;
78838;SDS011;68405;47.190;27.558;2023-05-18T07:49:20;4.20;;;2.20;;
78838;SDS011;68405;47.190;27.558;2023-05-18T07:51:52;4.70;;;2.10;;
78838;SDS011;68405;47.190;27.558;2023-05-18T07:54:24;2.50;;;2.20;;
78838;SDS011;68405;47.190;27.558;2023-05-18T07:56:56;3.40;;;1.80;;
78838;SDS011;68405;47.190;27.558;2023-05-18T07:59:28;3.00;;;2.00;;
78838;SDS011;68405;47.190;27.558;2023-05-18T08:02:00;3.50;;;1.60;;
78838;SDS011;68405;47.190;27.558;2023-05-18T08:04:32;3.20;;;1.80;;
78838;SDS011;68405;47.190;27.558;2023-05-18T08:07:05;4.00;;;1.70;;
78838;SDS011;68405;47.190;27.558;2023-05-18T08:09:38;2.20;;;2.00;;
78838;SDS011;68405;47.190;27.558;2023-05-18T08:12:10;2.60;;;1.40;;
78838;SDS011;68405;47.190;27.558;2023-05-18T08:14:41;3.90;;;1.70;;
78838;SDS011;68405;47.190;27.558;2023-05-18T08:17:13;3.20;;;1.60;;
78838;SDS011;68405;47.190;27.558;2023-05-18T08:19:47;2.50;;;1.90;;
78838;SDS011;68405;47.190;27.558;2023-05-18T08:22:21;2.00;;;1.80;;
78838;SDS011;68405;47.190;27.558;2023-05-18T08:24:53;3.50;;;1.80;;
78838;SDS011;68405;47.190;27.558;2023-05-18T08:27:28;3.60;;;1.80;;
78838;SDS011;68405;47.190;27.558;2023-05-18T08:30:00;4.10;;;1.70;;
78838;SDS011;68405;47.190;27.558;2023-05-18T08:32:32;3.30;;;2.30;;
78838;SDS011;68405;47.190;27.558;2023-05-18T08:35:05;3.90;;;2.00;;
78838;SDS011;68405;47.190;27.558;2023-05-18T08:37:38;3.80;;;2.00;;
78838;SDS011;68405;47.190;27.558;2023-05-18T08:40:11;3.30;;;2.20;;
78838;SDS011;68405;47.190;27.558;2023-05-18T08:42:45;4.40;;;2.20;;
78838;SDS011;68405;47.190;27.558;2023-05-18T08:45:22;2.30;;;2.10;;
78838;SDS011;68405;47.190;27.558;2023-05-18T08:48:01;4.50;;;2.40;;
78838;SDS011;68405;47.190;27.558;2023-05-18T08:53:05;2.70;;;2.40;;
78838;SDS011;68405;47.190;27.558;2023-05-18T08:55:38;3.00;;;2.20;;
78838;SDS011;68405;47.190;27.558;2023-05-18T08:58:10;3.30;;;2.20;;
78838;SDS011;68405;47.190;27.558;2023-05-18T09:00:47;3.50;;;2.20;;
78838;SDS011;68405;47.190;27.558;2023-05-18T09:03:22;2.80;;;2.40;;
78838;SDS011;68405;47.190;27.558;2023-05-18T09:05:55;4.30;;;2.60;;
78838;SDS011;68405;47.190;27.558;2023-05-18T09:08:28;4.30;;;2.80;;
78838;SDS011;68405;47.190;27.558;2023-05-18T09:11:01;3.30;;;2.70;;
78838;SDS011;68405;47.190;27.558;2023-05-18T09:13:34;2.50;;;2.20;;
78838;SDS011;68405;47.190;27.558;2023-05-18T09:16:07;2.80;;;2.60;;
78838;SDS011;68405;47.190;27.558;2023-05-18T09:18:39;5.50;;;2.80;;
78838;SDS011;68405;47.190;27.558;2023-05-18T09:21:11;2.60;;;2.40;;
78838;SDS011;68405;47.190;27.558;2023-05-18T09:23:43;4.70;;;2.60;;
78838;SDS011;68405;47.190;27.558;2023-05-18T09:26:16;3.50;;;2.90;;
78838;SDS011;68405;47.190;27.558;2023-05-18T09:28:52;2.90;;;2.60;;
78838;SDS011;68405;47.190;27.558;2023-05-18T09:31:24;6.90;;;3.40;;
78838;SDS011;68405;47.190;27.558;2023-05-18T09:34:00;3.40;;;3.10;;
78838;SDS011;68405;47.190;27.558;2023-05-18T09:36:33;5.60;;;3.00;;
78838;SDS011;68405;47.190;27.558;2023-05-18T09:39:08;2.40;;;2.10;;
78838;SDS011;68405;47.190;27.558;2023-05-18T09:41:40;3.20;;;2.30;;
78838;SDS011;68405;47.190;27.558;2023-05-18T09:44:12;3.20;;;2.70;;
78838;SDS011;68405;47.190;27.558;2023-05-18T09:46:44;5.90;;;2.80;;
78838;SDS011;68405;47.190;27.558;2023-05-18T09:49:20;3.00;;;2.50;;
78838;SDS011;68405;47.190;27.558;2023-05-18T09:51:53;4.50;;;2.20;;
78838;SDS011;68405;47.190;27.558;2023-05-18T09:54:27;2.50;;;2.30;;
78838;SDS011;68405;47.190;27.558;2023-05-18T09:56:59;4.20;;;2.10;;
78838;SDS011;68405;47.190;27.558;2023-05-18T09:59:31;5.10;;;2.40;;
78838;SDS011;68405;47.190;27.558;2023-05-18T10:02:04;3.30;;;2.00;;
78838;SDS011;68405;47.190;27.558;2023-05-18T10:04:41;3.40;;;2.20;;
78838;SDS011;68405;47.190;27.558;2023-05-18T10:07:13;3.90;;;2.40;;
78838;SDS011;68405;47.190;27.558;2023-05-18T10:09:46;3.20;;;2.40;;
78838;SDS011;68405;47.190;27.558;2023-05-18T10:12:29;5.20;;;2.50;;
78838;SDS011;68405;47.190;27.558;2023-05-18T10:15:02;5.90;;;3.00;;
78838;SDS011;68405;47.190;27.558;2023-05-18T10:17:38;4.20;;;2.50;;
78838;SDS011;68405;47.190;27.558;2023-05-18T10:20:12;6.60;;;2.60;;
78838;SDS011;68405;47.190;27.558;2023-05-18T10:22:48;4.00;;;2.10;;
78838;SDS011;68405;47.190;27.558;2023-05-18T10:25:21;3.30;;;2.10;;
78838;SDS011;68405;47.190;27.558;2023-05-18T10:27:55;4.10;;;2.50;;
78838;SDS011;68405;47.190;27.558;2023-05-18T10:30:32;3.30;;;2.00;;
78838;SDS011;68405;47.190;27.558;2023-05-18T10:33:05;3.40;;;2.80;;
78838;SDS011;68405;47.190;27.558;2023-05-18T10:35:38;4.80;;;3.10;;
78838;SDS011;68405;47.190;27.558;2023-05-18T10:38:10;4.00;;;2.50;;
78838;SDS011;68405;47.190;27.558;2023-05-18T10:40:44;4.30;;;3.20;;
78838;SDS011;68405;47.190;27.558;2023-05-18T10:43:21;5.10;;;2.50;;
78838;SDS011;68405;47.190;27.558;2023-05-18T10:45:54;4.90;;;2.80;;
78838;SDS011;68405;47.190;27.558;2023-05-18T10:48:28;4.90;;;3.10;;
78838;SDS011;68405;47.190;27.558;2023-05-18T10:51:00;5.00;;;3.30;;
78838;SDS011;68405;47.190;27.558;2023-05-18T10:53:34;6.50;;;3.00;;
78838;SDS011;68405;47.190;27.558;2023-05-18T10:56:11;5.80;;;3.30;;
78838;SDS011;68405;47.190;27.558;2023-05-18T10:58:44;4.10;;;2.90;;
78838;SDS011;68405;47.190;27.558;2023-05-18T11:01:17;3.00;;;2.40;;
78838;SDS011;68405;47.190;27.558;2023-05-18T11:03:49;3.90;;;2.60;;
78838;SDS011;68405;47.190;27.558;2023-05-18T11:06:24;4.30;;;2.40;;
78838;SDS011;68405;47.190;27.558;2023-05-18T11:08:56;4.00;;;2.50;;
78838;SDS011;68405;47.190;27.558;2023-05-18T11:11:28;4.00;;;2.80;;
78838;SDS011;68405;47.190;27.558;2023-05-18T11:17:09;5.20;;;3.10;;
78838;SDS011;68405;47.190;27.558;2023-05-18T11:22:46;5.90;;;3.40;;
78838;SDS011;68405;47.190;27.558;2023-05-18T11:25:39;4.20;;;2.90;;
78838;SDS011;68405;47.190;27.558;2023-05-18T11:28:12;6.30;;;2.70;;
78838;SDS011;68405;47.190;27.558;2023-05-18T11:30:45;6.70;;;2.90;;
78838;SDS011;68405;47.190;27.558;2023-05-18T11:33:28;3.80;;;2.70;;
78838;SDS011;68405;47.190;27.558;2023-05-18T11:36:08;5.70;;;2.80;;
78838;SDS011;68405;47.190;27.558;2023-05-18T11:41:33;4.50;;;2.70;;
78838;SDS011;68405;47.190;27.558;2023-05-18T11:44:16;5.50;;;3.40;;
78838;SDS011;68405;47.190;27.558;2023-05-18T11:46:53;3.90;;;2.70;;
78838;SDS011;68405;47.190;27.558;2023-05-18T11:49:31;4.40;;;3.00;;
78838;SDS011;68405;47.190;27.558;2023-05-18T11:52:13;5.10;;;2.90;;
78838;SDS011;68405;47.190;27.558;2023-05-18T11:54:48;3.90;;;3.30;;
78838;SDS011;68405;47.190;27.558;2023-05-18T11:59:57;4.90;;;2.80;;
78838;SDS011;68405;47.190;27.558;2023-05-18T12:02:31;6.60;;;2.60;;
78838;SDS011;68405;47.190;27.558;2023-05-18T12:05:06;3.00;;;2.70;;
78838;SDS011;68405;47.190;27.558;2023-05-18T12:07:38;3.60;;;2.40;;
78838;SDS011;68405;47.190;27.558;2023-05-18T12:10:12;4.60;;;3.10;;
78838;SDS011;68405;47.190;27.558;2023-05-18T12:12:45;5.50;;;3.00;;
78838;SDS011;68405;47.190;27.558;2023-05-18T12:15:22;4.70;;;2.80;;
78838;SDS011;68405;47.190;27.558;2023-05-18T12:17:57;3.60;;;3.00;;
78838;SDS011;68405;47.190;27.558;2023-05-18T12:20:29;5.60;;;2.80;;
78838;SDS011;68405;47.190;27.558;2023-05-18T12:23:02;5.40;;;2.80;;
78838;SDS011;68405;47.190;27.558;2023-05-18T12:25:34;3.20;;;2.60;;
78838;SDS011;68405;47.190;27.558;2023-05-18T12:28:07;2.90;;;2.30;;
78838;SDS011;68405;47.190;27.558;2023-05-18T12:30:38;4.10;;;2.80;;
78838;SDS011;68405;47.190;27.558;2023-05-18T12:33:11;6.50;;;2.90;;
78838;SDS011;68405;47.190;27.558;2023-05-18T12:35:43;7.80;;;3.40;;
78838;SDS011;68405;47.190;27.558;2023-05-18T12:38:14;4.00;;;2.80;;
78838;SDS011;68405;47.190;27.558;2023-05-18T12:40:48;6.70;;;3.60;;
78838;SDS011;68405;47.190;27.558;2023-05-18T12:43:21;4.30;;;2.70;;
78838;SDS011;68405;47.190;27.558;2023-05-18T12:45:55;6.00;;;3.40;;
78838;SDS011;68405;47.190;27.558;2023-05-18T12:48:33;4.70;;;2.90;;
78838;SDS011;68405;47.190;27.558;2023-05-18T12:51:06;4.90;;;3.60;;
78838;SDS011;68405;47.190;27.558;2023-05-18T12:53:48;7.40;;;3.50;;
78838;SDS011;68405;47.190;27.558;2023-05-18T12:56:20;5.70;;;3.00;;
78838;SDS011;68405;47.190;27.558;2023-05-18T12:58:57;4.90;;;2.80;;
78838;SDS011;68405;47.190;27.558;2023-05-18T13:01:39;4.40;;;2.90;;
78838;SDS011;68405;47.190;27.558;2023-05-18T13:04:12;5.10;;;3.00;;
78838;SDS011;68405;47.190;27.558;2023-05-18T13:06:44;5.90;;;3.30;;
78838;SDS011;68405;47.190;27.558;2023-05-18T13:09:17;4.40;;;3.40;;
78838;SDS011;68405;47.190;27.558;2023-05-18T13:11:50;4.30;;;3.40;;
78838;SDS011;68405;47.190;27.558;2023-05-18T13:14:28;4.90;;;3.60;;
78838;SDS011;68405;47.190;27.558;2023-05-18T13:17:06;5.70;;;2.70;;
78838;SDS011;68405;47.190;27.558;2023-05-18T13:19:38;6.10;;;2.90;;
78838;SDS011;68405;47.190;27.558;2023-05-18T13:22:10;5.30;;;3.30;;
78838;SDS011;68405;47.190;27.558;2023-05-18T13:24:46;6.60;;;3.70;;
78838;SDS011;68405;47.190;27.558;2023-05-18T13:27:18;7.30;;;3.40;;
78838;SDS011;68405;47.190;27.558;2023-05-18T13:29:50;4.40;;;3.40;;
78838;SDS011;68405;47.190;27.558;2023-05-18T13:32:26;5.70;;;3.20;;
78838;SDS011;68405;47.190;27.558;2023-05-18T13:34:59;5.00;;;3.00;;
78838;SDS011;68405;47.190;27.558;2023-05-18T13:37:31;4.50;;;3.30;;
78838;SDS011;68405;47.190;27.558;2023-05-18T13:40:03;7.90;;;3.90;;
78838;SDS011;68405;47.190;27.558;2023-05-18T13:42:36;5.50;;;3.50;;
78838;SDS011;68405;47.190;27.558;2023-05-18T13:45:08;8.30;;;3.60;;
78838;SDS011;68405;47.190;27.558;2023-05-18T13:47:41;6.00;;;4.00;;
78838;SDS011;68405;47.190;27.558;2023-05-18T13:50:18;4.80;;;3.00;;
78838;SDS011;68405;47.190;27.558;2023-05-18T13:52:50;6.80;;;3.80;;
78838;SDS011;68405;47.190;27.558;2023-05-18T13:55:22;4.90;;;3.80;;
78838;SDS011;68405;47.190;27.558;2023-05-18T13:57:54;8.00;;;3.70;;
78838;SDS011;68405;47.190;27.558;2023-05-18T14:00:26;5.60;;;3.30;;
78838;SDS011;68405;47.190;27.558;2023-05-18T14:03:00;5.80;;;3.30;;
78838;SDS011;68405;47.190;27.558;2023-05-18T14:05:32;6.40;;;3.80;;
78838;SDS011;68405;47.190;27.558;2023-05-18T14:08:04;3.90;;;3.30;;
78838;SDS011;68405;47.190;27.558;2023-05-18T14:10:36;8.60;;;3.40;;
78838;SDS011;68405;47.190;27.558;2023-05-18T14:13:08;5.80;;;2.90;;
78838;SDS011;68405;47.190;27.558;2023-05-18T14:15:40;6.50;;;3.30;;
78838;SDS011;68405;47.190;27.558;2023-05-18T14:18:11;4.90;;;3.00;;
78838;SDS011;68405;47.190;27.558;2023-05-18T14:20:43;4.30;;;3.20;;
78838;SDS011;68405;47.190;27.558;2023-05-18T14:23:16;5.70;;;3.80;;
78838;SDS011;68405;47.190;27.558;2023-05-18T14:25:47;6.90;;;3.20;;
78838;SDS011;68405;47.190;27.558;2023-05-18T14:28:19;5.30;;;3.20;;
78838;SDS011;68405;47.190;27.558;2023-05-18T14:30:51;8.10;;;4.10;;
78838;SDS011;68405;47.190;27.558;2023-05-18T14:33:23;7.50;;;4.20;;
78838;SDS011;68405;47.190;27.558;2023-05-18T14:35:54;6.40;;;3.70;;
78838;SDS011;68405;47.190;27.558;2023-05-18T14:38:26;5.20;;;4.00;;
78838;SDS011;68405;47.190;27.558;2023-05-18T14:40:58;7.30;;;3.80;;
78838;SDS011;68405;47.190;27.558;2023-05-18T14:43:30;6.80;;;3.50;;
78838;SDS011;68405;47.190;27.558;2023-05-18T14:46:01;9.70;;;4.20;;
78838;SDS011;68405;47.190;27.558;2023-05-18T14:48:33;8.30;;;3.90;;
78838;SDS011;68405;47.190;27.558;2023-05-18T14:51:05;8.30;;;4.00;;
78838;SDS011;68405;47.190;27.558;2023-05-18T14:53:37;8.20;;;3.90;;
78838;SDS011;68405;47.190;27.558;2023-05-18T14:56:09;9.80;;;3.90;;
78838;SDS011;68405;47.190;27.558;2023-05-18T14:58:41;9.90;;;4.40;;
78838;SDS011;68405;47.190;27.558;2023-05-18T15:01:15;5.40;;;3.30;;
78838;SDS011;68405;47.190;27.558;2023-05-18T15:03:47;6.00;;;4.10;;
78838;SDS011;68405;47.190;27.558;2023-05-18T15:06:19;6.00;;;4.10;;
78838;SDS011;68405;47.190;27.558;2023-05-18T15:08:51;7.40;;;4.00;;
78838;SDS011;68405;47.190;27.558;2023-05-18T15:11:23;7.60;;;3.70;;
78838;SDS011;68405;47.190;27.558;2023-05-18T15:13:55;6.50;;;3.80;;
78838;SDS011;68405;47.190;27.558;2023-05-18T15:16:27;9.70;;;4.30;;
78838;SDS011;68405;47.190;27.558;2023-05-18T15:18:59;5.70;;;4.10;;
78838;SDS011;68405;47.190;27.558;2023-05-18T15:21:32;9.90;;;4.40;;
78838;SDS011;68405;47.190;27.558;2023-05-18T15:24:04;6.90;;;3.60;;
78838;SDS011;68405;47.190;27.558;2023-05-18T15:26:36;9.00;;;4.10;;
78838;SDS011;68405;47.190;27.558;2023-05-18T15:29:09;13.70;;;4.50;;
78838;SDS011;68405;47.190;27.558;2023-05-18T15:31:41;6.90;;;3.90;;
78838;SDS011;68405;47.190;27.558;2023-05-18T15:34:14;6.60;;;3.80;;
78838;SDS011;68405;47.190;27.558;2023-05-18T15:36:45;11.00;;;4.20;;
78838;SDS011;68405;47.190;27.558;2023-05-18T15:39:18;5.50;;;3.90;;
78838;SDS011;68405;47.190;27.558;2023-05-18T15:41:50;6.60;;;3.70;;